Weather observations for the past three days for
Philip, Philip Airport
Imperial (Metric)
Date Time (mdt) Wind (mph) Vis. (mi.) Weather Sky Cond. Temperature (ºF) Relative Humidity Wind Chill (°F) Heat Index (°F) Pressure Precipitation (in)
Air Dwpt 6 hour altimeter (in) sea level (mb) 1 hr 3 hr 6 hr
Max. Min.
04 13:55 E 18 G 26 10.00 A Few Clouds FEW120 93.9 60.1 32% 94 29.84 1008.5
04 12:55 E 12 10.00 A Few Clouds FEW120 87.1 60.1 40% 87 29.87 1009.3
04 11:55 E 5 10.00 Fair CLR 84 60.1 84.9 55 44% 84 29.88 1009.9
04 09:55 NE 7 10.00 A Few Clouds FEW100 68 62.1 81% 29.9 1011.0
04 08:55 E 5 10.00 Fair CLR 64.9 60.1 84% 29.9 1010.9
04 07:55 E 5 10.00 Fair CLR 64.9 59 81% 29.9 1010.6
04 06:55 E 3 10.00 Fair CLR 57 53.1 87% 29.88 1010.0
04 05:55 Calm 10.00 Fair CLR 55.9 53.1 63 55 90% 29.87 1009.5
04 04:55 W 5 10.00 Fair CLR 55.9 52 87% 29.85 1008.8
04 03:55 NW 3 10.00 Fair CLR 57 53.1 87% 29.84 1008.2
04 02:55 Calm 10.00 Fair CLR 55 51.1 87% 29.84 1008.3
04 01:55 W 5 10.00 Fair CLR 57 53.1 87% 29.85 1008.5
04 00:55 Calm 10.00 Fair CLR 61 53.1 75% 29.85 1008.3
03 23:55 NE 3 10.00 Fair CLR 63 53.1 93 63 70% 29.84 1008.0
03 22:55 E 7 10.00 Fair CLR 69.1 53.1 57% 29.83 1007.5
03 21:55 E 9 10.00 Fair CLR 70 53.1 55% 29.82 1007.4
03 20:55 E 8 10.00 Fair CLR 72 51.1 48% 29.81 1007.0
03 19:55 E 7 10.00 Fair CLR 77 50 39% 78 29.78 1006.0
03 18:55 NE 12 10.00 Fair CLR 87.1 48.9 27% 84 29.76 1005.4
03 17:55 NE 15 10.00 Fair CLR 93 46 98.1 93 20% 89 29.76 1004.9
03 16:55 N 9 10.00 Fair CLR 95 44.1 17% 91 29.74 1004.2
03 15:55 NW 8 10.00 Fair CLR 97 44.1 16% 93 29.74 1004.4
03 14:55 Vrbl 6 G 18 10.00 Fair CLR 96.1 45 17% 92 29.74 1004.8
03 13:55 W 10 G 21 10.00 Fair CLR 96.1 44.1 17% 92 29.75 1004.7
03 12:55 W 17 G 24 10.00 Fair CLR 96.1 43 16% 92 29.75 1004.5
03 11:55 NW 14 G 25 10.00 Fair CLR 95 44.1 95 73.9 17% 91 29.75 1004.8
03 10:55 W 18 G 33 10.00 Fair CLR 93 46 20% 89 29.75 1004.8
03 09:55 W 17 10.00 Fair CLR 91 50 25% 88 29.74 1004.4
03 08:55 SW 20 G 26 10.00 Fair CLR 84.9 52 32% 83 29.73 1004.2
03 07:55 SW 16 10.00 Fair CLR 79 53.1 41% 79 29.73 1004.4
03 06:55 W 8 10.00 Fair CLR 75 51.1 43% 78 29.74 1004.5
03 05:55 SW 15 G 24 10.00 Fair CLR 75 51.1 75.9 62.1 43% 78 29.74 1004.3
03 04:55 SW 9 10.00 Fair CLR 75 48.9 40% 77 29.73 1004.1
03 03:55 SW 10 10.00 Fair CLR 70 51.1 51% 29.73 1003.9
03 02:55 Calm 10.00 Fair CLR 64 51.1 63% 29.73 1004.4
03 01:55 Calm 10.00 Fair CLR 69.1 52 55% 29.72 1004.2
03 00:55 S 3 10.00 Fair CLR 73.9 52 46% 29.75 1005.1
02 23:55 E 6 10.00 Fair CLR 72 62.1 91.9 70 71% 29.74 1005.3
02 22:55 NE 7 10.00 Fair CLR 73.9 61 64% 29.74 1005.4
02 21:55 Calm 10.00 Fair CLR 73.9 59 60% 29.74 1005.4
02 20:55 E 9 10.00 Fair CLR 75.9 59 56% 78 29.73 1004.9
02 19:55 E 8 10.00 Fair CLR 80.1 60.1 51% 81 29.73 1004.8
02 18:55 E 12 10.00 Fair CLR 88 61 40% 88 29.73 1004.7
02 17:55 E 10 10.00 Fair CLR 91.9 57.9 93.9 69.1 32% 91 29.74 1004.7
02 16:55 SE 8 10.00 Fair CLR 91.9 57.9 32% 91 29.75 1005.0
02 15:55 Vrbl 5 10.00 Fair CLR 93 57.9 31% 92 29.76 1005.5
02 14:55 Vrbl 5 10.00 Fair CLR 89.1 61 39% 89 29.79 1006.4
02 13:55 Calm 10.00 Fair CLR 84.9 63 48% 86 29.81 1007.4
02 12:55 Vrbl 3 10.00 Fair CLR 77 64 64% 79 29.84 1008.7
02 11:55 Vrbl 3 10.00 Overcast OVC010 69.1 63 70 63 81% 29.88 1010.2
02 10:55 SE 3 10.00 Overcast OVC006 66 63 90% 29.89 1010.9
02 09:55 Vrbl 3 10.00 Overcast OVC005 64.9 63 93% 29.89 1010.9
02 08:55 E 6 10.00 Overcast OVC006 64.9 63 93% 29.89 1010.5
02 07:55 NE 6 2.50 Fog/Mist OVC003 63 63 100% 29.89 1010.6
02 06:55 NE 6 0.75 Fog/Mist OVC003 63 63 100% 29.89 1010.3
02 05:55 NE 6 1.50 Fog/Mist OVC003 63 63 66 63 100% 29.87 1009.8
02 04:55 E 6 2.00 Fog/Mist OVC003 64 63 96% 29.86 1009.3
02 03:55 E 9 6.00 Fog/Mist OVC004 64 63 96% 29.87 1009.5
02 02:55 NE 8 10.00 Overcast OVC006 64.9 63 93% 29.86 1009.4
02 01:55 E 9 10.00 Overcast OVC006 66 64 93% 29.86 1009.4
02 00:55 E 8 10.00 Mostly Cloudy BKN008 64 63 96% 29.87 1010.0
01 23:55 E 9 10.00 Fair CLR 64.9 62.1 81 64 90% 29.87 1010.1
01 22:55 E 7 10.00 Fair CLR 64.9 59 81% 29.88 1010.7
01 21:55 E 9 10.00 Fair CLR 66.9 57.9 73% 29.9 1011.1
01 20:55 NE 13 10.00 Fair CLR 70 59 68% 29.9 1011.2
01 19:55 NE 13 10.00 Fair CLR 73 59 62% 29.88 1010.4
01 18:55 E 10 10.00 Fair CLR 78.1 62.1 58% 80 29.88 1010.2
01 17:55 E 10 10.00 Fair CLR 81 61 82 64.9 51% 82 29.87 1010.0
01 16:55 E 14 10.00 Partly Cloudy SCT060 81 60.1 49% 82 29.9 1010.9
01 15:55 E 13 10.00 Mostly Cloudy BKN060 80.1 62.1 54% 81 29.92 1011.4
Date Time (mdt) Wind (mph) Vis. (mi.) Weather Sky Cond. Air Dwpt Max. Min. Relative Humidity Wind Chill (°F) Heat Index (°F) altimeter (in) sea level (mb) 1 hr 3 hr 6 hr
6 hour
Temperature (ºF) Pressure Precipitation (in)